Time;durP1;ratioP1;P1;durP2;ratioP2;P2;SDS_P1;SDS_P2;PMS_P1;PMS_P2;Temp;Humidity;BMP_temperature;BMP_pressure;BME280_temperature;BME280_humidity;BME280_pressure;Samples;Min_cycle;Max_cycle;Signal;HPM_P1;HPM_P2
2023/01/15 00:01:21;;;;;;;0.70;0.70;;;;;;;12.86;39.15;95513.53;5045242;28;20206;-75
2023/01/15 00:03:49;;;;;;;1.00;0.67;;;;;;;12.83;38.79;95529.53;5044286;28;20233;-75
2023/01/15 00:06:17;;;;;;;0.70;0.70;;;;;;;12.79;39.78;95525.69;5046180;28;20218;-75
2023/01/15 00:08:44;;;;;;;0.67;0.67;;;;;;;12.79;38.39;95526.50;5056340;28;20210;-75
2023/01/15 00:11:12;;;;;;;0.60;0.60;;;;;;;12.66;39.43;95520.78;5047029;28;20212;-75
2023/01/15 00:13:39;;;;;;;0.73;0.70;;;;;;;12.64;38.94;95553.53;5038138;28;20302;-75
2023/01/15 00:16:08;;;;;;;0.70;0.70;;;;;;;12.47;39.14;95537.44;5045836;28;20222;-75
2023/01/15 00:18:36;;;;;;;0.80;0.80;;;;;;;12.26;39.51;95518.63;5058343;28;20220;-75
2023/01/15 00:21:05;;;;;;;0.70;0.70;;;;;;;12.20;40.04;95522.38;5044151;28;20237;-75
2023/01/15 00:29:05;;;;;;;1.07;1.00;;;;;;;12.26;40.50;95499.69;5044544;28;20213;-74
2023/01/15 00:31:33;;;;;;;0.70;0.70;;;;;;;12.21;40.71;95515.91;5044836;28;20206;-75
2023/01/15 00:34:01;;;;;;;0.63;0.63;;;;;;;12.11;41.07;95506.63;5034801;28;20241;-75
2023/01/15 00:36:28;;;;;;;0.70;0.70;;;;;;;12.24;40.13;95523.50;5036555;28;20203;-75
2023/01/15 00:38:55;;;;;;;0.70;0.70;;;;;;;12.34;40.90;95507.31;5047461;28;20251;-75
2023/01/15 00:41:23;;;;;;;1.27;0.80;;;;;;;12.24;40.01;95485.63;5040573;28;20209;-75
2023/01/15 00:43:51;;;;;;;1.17;0.73;;;;;;;12.28;40.33;95506.47;5046460;28;20217;-75
2023/01/15 00:46:18;;;;;;;0.70;0.70;;;;;;;12.27;39.64;95495.91;5045059;28;20263;-75
2023/01/15 00:48:45;;;;;;;0.70;0.70;;;;;;;12.41;39.94;95511.44;5042839;28;20198;-75
2023/01/15 00:51:14;;;;;;;0.97;0.80;;;;;;;12.36;39.28;95494.31;5039439;28;20260;-75
2023/01/15 00:53:42;;;;;;;0.70;0.67;;;;;;;12.37;39.79;95498.66;5037380;28;20286;-75
2023/01/15 00:56:09;;;;;;;0.83;0.83;;;;;;;12.30;39.69;95485.38;5039539;28;20281;-75
2023/01/15 00:58:36;;;;;;;0.70;0.70;;;;;;;12.42;39.60;95501.38;5042891;28;20210;-75
2023/01/15 01:01:03;;;;;;;0.70;0.70;;;;;;;12.41;39.28;95472.72;5042818;28;20245;-75
2023/01/15 01:03:30;;;;;;;0.93;0.80;;;;;;;12.42;38.88;95485.16;5045266;28;20210;-75
2023/01/15 01:06:00;;;;;;;3.67;0.80;;;;;;;12.48;39.31;95516.63;5062104;28;20194;-75
2023/01/15 01:08:30;;;;;;;0.90;0.80;;;;;;;12.53;38.66;95459.75;5042534;28;20202;-75
2023/01/15 01:11:05;;;;;;;0.60;0.60;;;;;;;12.54;38.57;95479.53;5042210;28;20279;-75
2023/01/15 01:13:34;;;;;;;0.70;0.70;;;;;;;12.60;38.26;95486.59;5032254;28;20228;-75
2023/01/15 01:16:01;;;;;;;0.80;0.80;;;;;;;12.58;38.11;95459.81;5043370;28;20202;-76
2023/01/15 01:18:28;;;;;;;0.70;0.63;;;;;;;12.65;38.32;95459.56;5040986;28;20207;-76
2023/01/15 01:20:56;;;;;;;0.93;0.70;;;;;;;12.68;38.04;95476.06;5047018;28;20217;-76
2023/01/15 01:23:23;;;;;;;0.97;0.80;;;;;;;12.57;38.30;95457.34;5041517;28;20205;-76
2023/01/15 01:25:52;;;;;;;0.70;0.70;;;;;;;12.54;38.29;95472.22;5045402;28;20257;-76
2023/01/15 01:28:19;;;;;;;0.93;0.70;;;;;;;12.49;38.10;95461.38;5041930;28;20237;-76
2023/01/15 01:30:46;;;;;;;0.70;0.70;;;;;;;12.53;38.42;95448.94;5034523;28;20209;-76
2023/01/15 01:33:13;;;;;;;1.07;0.90;;;;;;;12.60;37.45;95505.56;5044887;28;20202;-76
2023/01/15 01:35:40;;;;;;;0.60;0.60;;;;;;;12.61;37.13;95475.50;5046546;28;20202;-76
2023/01/15 01:38:07;;;;;;;0.70;0.70;;;;;;;12.58;37.71;95484.19;5046946;28;20209;-76
2023/01/15 01:40:34;;;;;;;1.90;0.80;;;;;;;12.60;37.37;95490.13;5044012;28;20213;-76
2023/01/15 01:43:02;;;;;;;0.70;0.70;;;;;;;12.59;36.86;95493.91;5045507;28;20256;-76
2023/01/15 01:45:32;;;;;;;0.80;0.80;;;;;;;12.70;37.23;95506.41;5034137;28;20214;-76
2023/01/15 01:48:05;;;;;;;0.70;0.70;;;;;;;12.89;36.97;95509.50;5043783;28;20222;-76
2023/01/15 01:50:34;;;;;;;0.67;0.67;;;;;;;12.94;36.53;95514.09;5043567;28;20210;-76
2023/01/15 01:53:07;;;;;;;1.20;0.90;;;;;;;12.79;36.73;95499.44;5044569;28;20206;-76
2023/01/15 01:55:36;;;;;;;1.70;0.80;;;;;;;12.82;36.76;95479.13;5043984;28;20292;-76
2023/01/15 01:58:08;;;;;;;1.00;0.77;;;;;;;12.75;36.85;95503.75;5044724;28;20202;-76
2023/01/15 02:00:38;;;;;;;0.90;0.70;;;;;;;12.69;36.70;95485.84;5040985;28;20207;-76
2023/01/15 02:03:08;;;;;;;0.70;0.70;;;;;;;12.60;36.98;95476.59;5046415;28;20208;-76
2023/01/15 02:05:38;;;;;;;0.80;0.80;;;;;;;12.59;36.84;95490.41;5043065;28;20289;-76
2023/01/15 02:08:07;;;;;;;0.70;0.70;;;;;;;12.50;36.77;95506.34;5040498;28;20227;-76
2023/01/15 02:10:34;;;;;;;0.70;0.70;;;;;;;12.55;36.63;95471.16;5061699;28;20223;-76
2023/01/15 02:13:10;;;;;;;0.70;0.70;;;;;;;12.60;36.87;95479.28;5038558;28;20202;-76
2023/01/15 02:15:43;;;;;;;0.70;0.70;;;;;;;12.64;36.44;95466.03;5041585;28;20292;-76
2023/01/15 02:18:18;;;;;;;0.77;0.77;;;;;;;12.61;36.91;95448.44;5047990;28;20194;-76
2023/01/15 02:20:50;;;;;;;0.70;0.70;;;;;;;12.56;37.08;95480.09;5051477;28;20288;-76
2023/01/15 02:23:46;;;;;;;0.90;0.80;;;;;;;12.54;36.70;95447.84;5045977;28;20207;-76
2023/01/15 02:26:30;;;;;;;0.70;0.70;;;;;;;12.47;36.67;95452.72;5046166;28;20214;-76
2023/01/15 02:28:59;;;;;;;0.70;0.70;;;;;;;12.61;37.06;95469.28;5048146;28;20195;-76
2023/01/15 02:31:32;;;;;;;0.70;0.70;;;;;;;12.57;37.10;95439.22;5049067;28;20304;-76
2023/01/15 02:34:03;;;;;;;0.83;0.80;;;;;;;12.45;36.97;95422.38;5040573;28;20245;-76
2023/01/15 02:36:39;;;;;;;0.73;0.60;;;;;;;12.49;37.26;95434.31;5045730;28;20221;-76
2023/01/15 02:39:12;;;;;;;0.93;0.80;;;;;;;12.40;37.81;95406.13;5046949;28;20198;-76
2023/01/15 02:41:45;;;;;;;0.70;0.60;;;;;;;12.51;37.47;95389.63;5052415;28;20244;-76
2023/01/15 02:44:16;;;;;;;0.60;0.60;;;;;;;12.59;37.53;95361.22;5047572;28;20205;-76
2023/01/15 02:46:45;;;;;;;1.00;0.80;;;;;;;12.67;36.29;95404.06;5046130;28;20226;-76
2023/01/15 02:49:15;;;;;;;2.10;0.70;;;;;;;12.64;36.90;95406.47;5054883;28;20198;-76
2023/01/15 02:51:49;;;;;;;0.77;0.70;;;;;;;12.58;37.02;95372.34;5045411;28;20203;-76
2023/01/15 02:54:20;;;;;;;1.00;0.90;;;;;;;12.56;37.61;95364.47;5040405;28;20221;-76
2023/01/15 02:56:49;;;;;;;0.97;0.80;;;;;;;12.63;37.63;95386.69;5049076;28;20277;-76
2023/01/15 02:59:24;;;;;;;0.70;0.70;;;;;;;12.68;37.19;95369.63;5045048;28;20286;-76
2023/01/15 03:01:57;;;;;;;0.90;0.80;;;;;;;12.65;37.20;95375.59;5037341;28;20190;-76
2023/01/15 03:04:30;;;;;;;1.47;0.80;;;;;;;12.69;37.84;95368.56;5044647;28;20206;-76
2023/01/15 03:07:06;;;;;;;0.70;0.70;;;;;;;12.80;37.27;95368.31;5043808;28;20218;-76
2023/01/15 03:09:36;;;;;;;0.80;0.80;;;;;;;12.67;36.71;95366.13;5046799;28;20290;-74
2023/01/15 03:12:10;;;;;;;0.63;0.63;;;;;;;12.67;36.58;95344.47;5049840;28;20313;-76
2023/01/15 03:14:49;;;;;;;0.67;0.67;;;;;;;12.63;36.98;95347.97;5049114;28;20206;-76
2023/01/15 03:17:21;;;;;;;0.77;0.77;;;;;;;12.68;36.19;95332.53;5055824;28;20202;-76
2023/01/15 03:19:56;;;;;;;0.67;0.67;;;;;;;12.77;36.94;95338.25;5048077;28;20209;-76
2023/01/15 03:22:28;;;;;;;0.60;0.60;;;;;;;12.91;37.13;95365.63;5046996;28;20272;-76
2023/01/15 03:25:00;;;;;;;1.60;0.80;;;;;;;13.08;36.01;95347.22;5047131;28;20231;-76
2023/01/15 03:27:32;;;;;;;0.93;0.80;;;;;;;13.05;35.76;95334.22;5048490;28;20220;-76
2023/01/15 03:30:05;;;;;;;1.00;0.90;;;;;;;12.98;35.29;95349.94;5048456;28;20206;-76
2023/01/15 03:32:33;;;;;;;0.70;0.70;;;;;;;12.87;35.50;95339.06;5046891;28;20206;-76
2023/01/15 03:35:02;;;;;;;0.73;0.73;;;;;;;12.84;35.16;95342.31;5048202;28;20201;-76
2023/01/15 03:37:31;;;;;;;1.33;0.80;;;;;;;12.94;34.56;95365.06;5048949;28;20198;-76
2023/01/15 03:39:59;;;;;;;1.77;0.80;;;;;;;12.96;34.83;95357.50;5037235;28;20218;-76
2023/01/15 03:42:43;;;;;;;0.60;0.60;;;;;;;12.91;34.97;95349.38;5034620;28;20206;-76
2023/01/15 03:45:18;;;;;;;1.00;0.73;;;;;;;12.81;34.64;95350.19;5043153;28;20230;-76
2023/01/15 03:47:59;;;;;;;0.70;0.70;;;;;;;12.83;34.59;95381.34;5044532;28;20256;-76
2023/01/15 03:50:33;;;;;;;0.73;0.73;;;;;;;12.84;34.19;95363.19;5044255;28;20202;-75
2023/01/15 03:53:11;;;;;;;2.20;0.90;;;;;;;12.81;34.34;95388.09;5040288;28;20297;-76
2023/01/15 03:55:53;;;;;;;0.70;0.70;;;;;;;12.81;34.74;95350.19;5041241;28;20202;-76
2023/01/15 03:58:27;;;;;;;0.70;0.70;;;;;;;12.80;34.02;95365.59;5046047;28;20202;-76
2023/01/15 04:01:00;;;;;;;0.80;0.80;;;;;;;12.67;34.00;95374.25;5041756;28;20277;-76
2023/01/15 04:03:31;;;;;;;1.00;0.90;;;;;;;12.63;34.90;95354.19;5046958;28;20221;-76
2023/01/15 04:06:01;;;;;;;0.70;0.70;;;;;;;12.63;34.56;95367.75;5053413;28;20297;-75
2023/01/15 04:08:33;;;;;;;0.80;0.80;;;;;;;12.66;34.43;95377.22;5039619;28;20227;-76
2023/01/15 04:11:02;;;;;;;1.57;1.17;;;;;;;12.59;34.67;95357.72;5039520;28;20293;-76
2023/01/15 04:13:37;;;;;;;0.80;0.80;;;;;;;12.65;34.76;95373.72;5045952;28;20248;-76
2023/01/15 04:16:09;;;;;;;1.23;0.80;;;;;;;12.60;35.06;95364.72;5047396;28;20202;-76
2023/01/15 04:18:36;;;;;;;0.90;0.70;;;;;;;12.64;35.13;95377.50;5046360;28;20225;-76
2023/01/15 04:21:03;;;;;;;0.80;0.80;;;;;;;12.74;35.22;95365.88;5050088;28;20201;-76
2023/01/15 04:23:32;;;;;;;1.37;0.90;;;;;;;12.71;34.90;95383.47;5043633;28;20255;-76
2023/01/15 04:25:59;;;;;;;0.80;0.80;;;;;;;12.57;34.99;95344.44;5039823;28;20226;-76
2023/01/15 04:28:26;;;;;;;0.80;0.80;;;;;;;12.48;35.42;95346.84;5044200;28;20308;-76
2023/01/15 04:30:58;;;;;;;0.70;0.70;;;;;;;12.45;35.53;95368.22;5042122;28;20198;-76
2023/01/15 04:33:27;;;;;;;1.93;0.83;;;;;;;12.44;35.57;95380.94;5042502;28;20198;-76
2023/01/15 04:35:54;;;;;;;6.17;0.97;;;;;;;12.41;35.87;95372.56;5040569;28;20206;-76
2023/01/15 04:38:20;;;;;;;0.77;0.77;;;;;;;12.49;35.77;95394.50;5043722;28;20244;-76
2023/01/15 04:46:21;;;;;;;0.70;0.70;;;;;;;12.39;35.84;95380.13;5041120;28;20210;-76
2023/01/15 04:48:50;;;;;;;1.13;0.90;;;;;;;12.28;36.21;95394.69;5037109;28;20317;-76
2023/01/15 04:51:17;;;;;;;0.77;0.77;;;;;;;12.32;36.75;95390.38;5046910;28;20197;-76
2023/01/15 04:53:44;;;;;;;0.77;0.77;;;;;;;12.31;36.38;95408.50;5045035;28;20214;-76
2023/01/15 04:56:11;;;;;;;1.33;0.80;;;;;;;12.34;36.20;95393.59;5046379;28;20252;-76
2023/01/15 04:58:38;;;;;;;0.80;0.80;;;;;;;12.37;36.16;95395.81;5040790;28;20221;-76
2023/01/15 05:01:11;;;;;;;0.80;0.80;;;;;;;12.35;36.48;95392.53;5043839;28;20201;-76
2023/01/15 05:03:38;;;;;;;0.80;0.80;;;;;;;12.36;36.88;95396.88;5038363;28;20206;-76
2023/01/15 05:06:07;;;;;;;0.77;0.77;;;;;;;12.29;37.72;95417.97;5048810;28;20271;-76
2023/01/15 05:08:35;;;;;;;0.73;0.73;;;;;;;12.24;37.52;95410.66;5042001;28;20229;-76
2023/01/15 05:11:02;;;;;;;1.10;0.70;;;;;;;12.22;38.01;95404.69;5034482;28;20233;-76
2023/01/15 05:13:31;;;;;;;0.70;0.70;;;;;;;12.26;38.11;95410.34;5046049;28;20206;-76
2023/01/15 05:16:09;;;;;;;0.87;0.80;;;;;;;12.16;38.74;95403.03;5041481;28;20203;-75
2023/01/15 05:18:35;;;;;;;2.03;1.10;;;;;;;12.16;38.20;95426.56;5029872;28;20352;-76
2023/01/15 05:21:02;;;;;;;0.90;0.90;;;;;;;12.07;38.46;95427.06;5047416;28;20198;-76
2023/01/15 05:23:31;;;;;;;1.00;0.90;;;;;;;12.04;38.89;95405.13;5035712;28;20238;-76
2023/01/15 05:25:58;;;;;;;0.70;0.70;;;;;;;12.03;39.57;95396.19;5035851;28;20226;-77
2023/01/15 05:28:25;;;;;;;0.90;0.80;;;;;;;12.06;39.81;95409.19;5038764;28;20245;-76
2023/01/15 05:30:52;;;;;;;0.97;0.80;;;;;;;12.05;39.31;95417.56;5046008;28;20210;-76
2023/01/15 05:33:19;;;;;;;0.77;0.77;;;;;;;12.00;39.41;95426.47;5045363;28;20277;-76
2023/01/15 05:35:45;;;;;;;1.03;0.80;;;;;;;12.01;40.08;95411.84;5041883;28;20191;-76
2023/01/15 05:38:12;;;;;;;0.70;0.70;;;;;;;12.05;40.74;95409.44;5036691;28;20286;-76
2023/01/15 05:40:41;;;;;;;1.33;0.90;;;;;;;11.99;40.84;95434.84;5036589;28;20222;-76
2023/01/15 05:43:08;;;;;;;0.80;0.80;;;;;;;11.85;41.00;95407.44;5042410;28;20248;-76
2023/01/15 05:45:35;;;;;;;1.40;1.13;;;;;;;11.83;41.75;95385.22;5045788;28;20252;-76
2023/01/15 05:48:02;;;;;;;1.23;0.90;;;;;;;11.83;41.63;95396.06;5045159;28;20233;-75
2023/01/15 05:50:29;;;;;;;0.83;0.83;;;;;;;11.82;41.76;95410.69;5041584;28;20201;-76
2023/01/15 05:52:56;;;;;;;1.73;0.70;;;;;;;11.78;42.47;95401.44;5045850;28;20202;-76
2023/01/15 05:55:23;;;;;;;1.07;0.80;;;;;;;11.73;42.49;95398.69;5043390;28;20211;-76
2023/01/15 05:57:52;;;;;;;1.10;0.90;;;;;;;11.76;42.21;95392.78;5042754;28;20198;-76
2023/01/15 06:00:20;;;;;;;0.70;0.70;;;;;;;11.74;42.03;95381.34;5045491;28;20260;-75
2023/01/15 06:02:49;;;;;;;1.07;1.00;;;;;;;11.70;42.38;95391.09;5042717;28;20213;-75
2023/01/15 06:05:19;;;;;;;1.63;0.80;;;;;;;11.72;41.75;95408.69;5042050;28;20297;-76
2023/01/15 06:07:48;;;;;;;1.07;0.90;;;;;;;11.74;42.62;95386.75;5044536;28;20217;-76
2023/01/15 06:10:17;;;;;;;1.13;0.90;;;;;;;11.65;42.08;95377.53;5042250;28;20214;-76
2023/01/15 06:12:43;;;;;;;1.17;0.90;;;;;;;11.70;42.17;95383.78;5046323;28;20205;-76
2023/01/15 06:15:13;;;;;;;0.70;0.70;;;;;;;11.74;42.56;95394.88;5030487;28;20218;-76
2023/01/15 06:17:40;;;;;;;1.27;0.90;;;;;;;11.77;42.76;95367.34;5042438;28;20214;-76
2023/01/15 06:20:08;;;;;;;0.73;0.73;;;;;;;11.76;42.35;95371.13;5041507;28;20199;-76
2023/01/15 06:22:37;;;;;;;1.10;1.00;;;;;;;11.77;42.91;95351.13;5041601;28;20218;-76
2023/01/15 06:25:05;;;;;;;1.30;0.90;;;;;;;11.83;42.53;95341.97;5039664;28;20309;-76
2023/01/15 06:27:33;;;;;;;1.47;0.90;;;;;;;11.82;42.70;95351.19;5040297;28;20207;-76
2023/01/15 06:29:59;;;;;;;0.80;0.80;;;;;;;11.77;42.65;95343.03;5044293;28;20209;-76
2023/01/15 06:32:28;;;;;;;0.80;0.80;;;;;;;11.77;42.30;95345.72;5042596;28;20284;-76
2023/01/15 06:34:55;;;;;;;0.97;0.90;;;;;;;11.81;42.53;95318.97;5043368;28;20206;-76
2023/01/15 06:37:22;;;;;;;0.80;0.80;;;;;;;11.65;43.19;95326.16;5042386;28;20214;-76
2023/01/15 06:39:49;;;;;;;1.93;0.87;;;;;;;11.73;42.48;95344.59;5033401;28;20207;-76
2023/01/15 06:47:47;;;;;;;1.27;1.00;;;;;;;11.76;42.30;95341.38;5047361;28;20240;-76
2023/01/15 06:50:14;;;;;;;0.93;0.80;;;;;;;11.88;41.53;95319.56;5048028;28;20202;-76
2023/01/15 06:52:41;;;;;;;0.70;0.70;;;;;;;11.87;41.10;95324.16;5045671;28;20207;-75
2023/01/15 06:55:10;;;;;;;2.10;0.80;;;;;;;11.93;41.93;95312.25;5057482;28;20209;-76
2023/01/15 06:57:38;;;;;;;0.70;0.70;;;;;;;12.02;40.84;95328.81;5041607;28;20256;-76
2023/01/15 07:00:09;;;;;;;0.80;0.80;;;;;;;12.02;40.72;95315.28;5049563;28;20190;-76
2023/01/15 07:02:36;;;;;;;2.13;0.80;;;;;;;11.96;41.23;95313.63;5044750;28;20274;-76
2023/01/15 07:05:05;;;;;;;0.80;0.80;;;;;;;12.02;40.96;95310.69;5045217;28;20195;-75
2023/01/15 07:07:31;;;;;;;1.20;0.90;;;;;;;11.97;41.06;95302.56;5047734;28;20210;-76
2023/01/15 07:09:58;;;;;;;1.13;0.80;;;;;;;12.02;41.22;95304.47;5046197;28;20254;-76
2023/01/15 07:12:26;;;;;;;2.23;0.80;;;;;;;12.01;41.24;95311.75;5051724;28;20201;-76
2023/01/15 07:14:53;;;;;;;1.20;0.80;;;;;;;11.99;41.01;95308.50;5042946;28;20198;-76
2023/01/15 07:17:20;;;;;;;1.30;1.00;;;;;;;11.99;41.39;95303.09;5050719;28;20191;-76
2023/01/15 07:19:47;;;;;;;1.10;0.93;;;;;;;11.95;41.41;95291.19;5047702;28;20198;-76
2023/01/15 07:22:16;;;;;;;1.13;0.90;;;;;;;11.84;41.74;95275.97;5045631;28;20210;-76
2023/01/15 07:24:43;;;;;;;0.80;0.80;;;;;;;11.98;41.39;95298.78;5049895;28;20329;-76
2023/01/15 07:27:10;;;;;;;0.80;0.80;;;;;;;12.06;41.14;95284.75;5043622;28;20201;-76
2023/01/15 07:29:37;;;;;;;1.03;0.80;;;;;;;12.08;41.40;95279.03;5053404;28;20230;-77
2023/01/15 07:32:04;;;;;;;0.80;0.80;;;;;;;12.08;41.57;95279.03;5046899;28;20202;-76
2023/01/15 07:34:32;;;;;;;1.00;0.90;;;;;;;11.99;41.84;95272.53;5043055;28;20210;-76
2023/01/15 07:36:58;;;;;;;1.00;0.90;;;;;;;11.97;41.70;95275.50;5051342;28;20199;-76
2023/01/15 07:39:27;;;;;;;1.23;0.97;;;;;;;11.99;41.55;95265.22;5031773;28;20229;-76
2023/01/15 07:50:13;;;;;;;0.80;0.80;;;;;;;12.20;41.69;95257.97;5040796;28;20226;-76
2023/01/15 07:52:41;;;;;;;1.00;0.90;;;;;;;12.22;40.97;95260.44;5045401;28;20212;-76
2023/01/15 07:55:11;;;;;;;0.90;0.90;;;;;;;12.29;41.02;95282.63;5034168;28;20210;-76
2023/01/15 07:57:38;;;;;;;1.67;0.90;;;;;;;12.33;41.12;95275.63;5040611;28;20202;-74
2023/01/15 08:00:10;;;;;;;1.13;0.87;;;;;;;12.36;40.83;95258.81;5038089;28;20191;-75
2023/01/15 08:02:41;;;;;;;0.70;0.70;;;;;;;12.36;40.94;95245.28;5038770;28;20243;-76
2023/01/15 08:05:10;;;;;;;0.80;0.80;;;;;;;12.39;40.99;95264.53;5043397;28;20209;-75
2023/01/15 08:07:38;;;;;;;1.20;1.00;;;;;;;12.41;40.74;95238.00;5035522;28;20217;-76
2023/01/15 08:10:08;;;;;;;2.03;1.03;;;;;;;12.50;40.96;95230.16;5045455;28;20226;-76
2023/01/15 08:15:21;;;;;;;1.07;0.90;;;;;;;12.55;40.42;95204.97;5041169;28;20278;-76
2023/01/15 08:17:50;;;;;;;1.07;1.00;;;;;;;12.69;40.13;95227.72;5035745;28;20203;-75
2023/01/15 08:20:19;;;;;;;1.07;0.90;;;;;;;12.59;40.50;95225.81;5032342;28;20242;-76
2023/01/15 08:22:47;;;;;;;1.40;1.00;;;;;;;12.63;40.34;95189.00;5035023;28;20229;-76
2023/01/15 08:25:16;;;;;;;1.33;1.10;;;;;;;12.68;40.29;95226.09;5035377;28;20349;-76
2023/01/15 08:27:45;;;;;;;1.33;0.80;;;;;;;12.74;40.43;95200.66;5046500;28;20198;-76
2023/01/15 08:30:15;;;;;;;2.70;0.90;;;;;;;12.75;40.00;95196.88;5048026;28;20280;-76
2023/01/15 08:32:42;;;;;;;0.83;0.80;;;;;;;12.80;40.32;95196.84;5040448;28;20224;-76
2023/01/15 08:35:10;;;;;;;1.27;1.00;;;;;;;12.90;40.18;95207.69;5041379;28;20226;-76
2023/01/15 08:37:36;;;;;;;1.07;1.00;;;;;;;13.01;40.05;95208.50;5044254;28;20199;-76
2023/01/15 08:40:04;;;;;;;0.87;0.83;;;;;;;12.97;40.48;95191.16;5043709;28;20208;-76
2023/01/15 08:42:31;;;;;;;1.07;0.83;;;;;;;12.99;40.28;95181.66;5043155;28;20245;-76
2023/01/15 08:44:59;;;;;;;0.97;0.83;;;;;;;13.01;39.92;95170.56;5042974;28;20209;-76
2023/01/15 08:47:26;;;;;;;1.20;1.03;;;;;;;13.09;39.61;95184.38;5042283;28;20206;-76
2023/01/15 08:49:53;;;;;;;0.73;0.73;;;;;;;13.10;39.61;95179.75;5044509;28;20303;-76
2023/01/15 08:52:20;;;;;;;0.80;0.80;;;;;;;13.07;39.58;95180.28;5038953;28;20293;-74
2023/01/15 08:54:47;;;;;;;2.23;0.83;;;;;;;13.10;39.69;95164.28;5039860;28;20203;-76
2023/01/15 08:57:14;;;;;;;1.00;0.90;;;;;;;13.12;39.52;95161.31;5039047;28;20212;-76
2023/01/15 08:59:42;;;;;;;0.90;0.70;;;;;;;13.16;39.76;95165.13;5047052;28;20210;-76
2023/01/15 09:02:14;;;;;;;1.03;0.80;;;;;;;13.16;39.14;95140.75;5045514;28;20222;-76
2023/01/15 09:04:41;;;;;;;0.90;0.80;;;;;;;13.25;39.03;95144.50;5038736;28;20214;-76
2023/01/15 09:07:08;;;;;;;0.77;0.70;;;;;;;13.33;39.12;95152.06;5045229;28;20187;-76
2023/01/15 09:09:35;;;;;;;0.83;0.83;;;;;;;13.33;39.02;95168.34;5046620;28;20229;-75
2023/01/15 09:12:02;;;;;;;1.23;0.90;;;;;;;13.32;38.82;95161.28;5045517;28;20222;-76
2023/01/15 09:14:29;;;;;;;1.33;0.97;;;;;;;13.37;39.37;95166.69;5044964;28;20211;-76
2023/01/15 09:16:56;;;;;;;0.80;0.80;;;;;;;13.38;38.75;95162.88;5047567;28;20213;-76
2023/01/15 09:19:25;;;;;;;1.80;0.80;;;;;;;13.41;39.03;95170.47;5028084;28;20194;-76
2023/01/15 09:21:51;;;;;;;0.87;0.83;;;;;;;13.44;38.61;95185.41;5041304;28;20206;-76
2023/01/15 09:24:18;;;;;;;2.07;1.27;;;;;;;13.56;38.42;95194.81;5048024;28;20236;-76
2023/01/15 09:26:46;;;;;;;1.00;0.83;;;;;;;13.64;38.75;95185.31;5038586;28;20228;-76
2023/01/15 09:29:13;;;;;;;1.03;0.73;;;;;;;13.60;38.40;95185.06;5039184;28;20219;-76
2023/01/15 09:31:40;;;;;;;1.13;0.90;;;;;;;13.61;38.15;95183.13;5042716;28;20195;-76
2023/01/15 09:34:07;;;;;;;2.60;0.87;;;;;;;13.68;38.15;95163.88;5038584;28;20202;-76
2023/01/15 09:36:35;;;;;;;1.37;0.77;;;;;;;13.74;37.57;95158.13;5039556;28;20194;-76
2023/01/15 09:39:04;;;;;;;1.27;0.80;;;;;;;13.77;37.85;95164.91;5042278;28;20301;-76
2023/01/15 09:42:07;;;;;;;1.63;1.10;;;;;;;13.82;38.11;95156.75;5045709;28;20228;-76
2023/01/15 09:44:45;;;;;;;2.10;0.90;;;;;;;13.90;37.83;95177.84;5034427;28;20210;-76
2023/01/15 09:47:18;;;;;;;0.77;0.77;;;;;;;13.78;37.85;95169.25;5045869;28;20253;-76
2023/01/15 09:50:14;;;;;;;2.00;0.80;;;;;;;13.77;37.82;95173.06;5046788;28;20229;-76
2023/01/15 09:53:00;;;;;;;0.90;0.80;;;;;;;13.85;37.61;95177.91;5039086;28;20226;-76
2023/01/15 09:55:29;;;;;;;0.83;0.70;;;;;;;13.81;37.59;95160.53;5035271;28;20207;-76
2023/01/15 09:57:59;;;;;;;1.67;0.90;;;;;;;13.81;37.59;95174.09;5038859;28;20198;-76
2023/01/15 10:00:38;;;;;;;1.60;0.77;;;;;;;13.79;37.72;95173.56;5049727;28;20195;-76
2023/01/15 10:03:14;;;;;;;0.73;0.73;;;;;;;13.81;37.45;95182.25;5038944;28;20222;-76
2023/01/15 10:05:46;;;;;;;0.70;0.70;;;;;;;13.84;37.56;95195.25;5035361;28;20229;-76
2023/01/15 10:08:19;;;;;;;2.13;1.00;;;;;;;13.87;37.80;95191.97;5042672;28;20298;-76
2023/01/15 10:10:51;;;;;;;1.60;1.20;;;;;;;13.96;38.03;95233.72;5038217;28;20236;-76
2023/01/15 10:13:27;;;;;;;1.00;1.00;;;;;;;13.79;50.14;95273.94;5045135;28;20267;-76
2023/01/15 10:15:55;;;;;;;1.37;1.00;;;;;;;13.26;65.90;95297.94;5045851;28;20256;-76
2023/01/15 10:18:24;;;;;;;1.67;1.10;;;;;;;12.78;73.92;95319.00;5043126;28;20217;-76
2023/01/15 10:21:10;;;;;;;0.93;0.90;;;;;;;12.48;82.54;95316.25;5043035;28;20206;-76
2023/01/15 10:23:46;;;;;;;0.93;0.80;;;;;;;12.13;90.86;95325.88;5055624;28;20203;-76
2023/01/15 10:26:17;;;;;;;0.83;0.80;;;;;;;11.90;97.66;95350.69;5048450;28;20284;-76
2023/01/15 10:28:58;;;;;;;1.77;1.00;;;;;;;11.60;100.00;95366.66;5047955;28;20221;-76
2023/01/15 10:31:37;;;;;;;1.07;0.90;;;;;;;11.45;100.00;95380.09;5045478;28;20202;-76
2023/01/15 10:34:25;;;;;;;1.80;1.00;;;;;;;11.25;100.00;95381.56;5047904;28;20220;-76
2023/01/15 10:36:58;;;;;;;1.97;1.10;;;;;;;11.00;100.00;95395.66;5049140;28;20206;-76
2023/01/15 10:39:34;;;;;;;1.17;0.77;;;;;;;10.80;100.00;95402.75;5040156;28;20266;-76
2023/01/15 10:42:11;;;;;;;0.70;0.70;;;;;;;10.68;100.00;95429.06;5038787;28;20226;-76
2023/01/15 10:44:48;;;;;;;0.60;0.60;;;;;;;10.58;100.00;95444.09;5039796;28;20314;-76
2023/01/15 10:47:20;;;;;;;0.80;0.80;;;;;;;10.37;100.00;95484.56;5046935;28;20209;-76
2023/01/15 10:49:49;;;;;;;1.00;0.80;;;;;;;10.00;100.00;95497.78;5044836;28;20291;-76
2023/01/15 10:52:25;;;;;;;1.90;1.20;;;;;;;9.72;100.00;95490.59;5046297;28;20202;-76
2023/01/15 10:54:58;;;;;;;1.60;1.00;;;;;;;9.45;100.00;95502.00;5050847;28;20213;-76
2023/01/15 10:57:37;;;;;;;1.20;0.90;;;;;;;9.23;100.00;95513.75;5049440;28;20300;-76
2023/01/15 11:00:07;;;;;;;1.07;0.97;;;;;;;9.18;100.00;95533.34;5042888;28;20202;-76
2023/01/15 11:02:40;;;;;;;1.53;1.10;;;;;;;8.94;100.00;95553.31;5045329;28;20210;-76
2023/01/15 11:05:14;;;;;;;1.70;1.20;;;;;;;8.85;100.00;95550.19;5040262;28;20205;-76
2023/01/15 11:07:44;;;;;;;2.87;1.00;;;;;;;8.74;100.00;95556.44;5030856;28;20300;-76
2023/01/15 11:10:15;;;;;;;0.73;0.73;;;;;;;8.66;100.00;95564.88;5049926;28;20222;-76
2023/01/15 11:21:13;;;;;;;1.30;0.93;;;;;;;8.13;100.00;95590.03;5042744;28;20233;-76
2023/01/15 11:23:41;;;;;;;1.53;1.00;;;;;;;8.13;100.00;95594.59;5041343;28;20297;-76
2023/01/15 11:26:16;;;;;;;0.90;0.80;;;;;;;8.02;100.00;95596.19;5043969;28;20248;-76
2023/01/15 11:28:45;;;;;;;0.70;0.70;;;;;;;7.86;100.00;95599.56;5045605;28;20214;-76
2023/01/15 11:31:13;;;;;;;1.23;0.60;;;;;;;7.81;100.00;95618.28;5039640;28;20222;-76
2023/01/15 11:33:44;;;;;;;0.60;0.60;;;;;;;7.68;100.00;95623.84;5045091;28;20244;-76
2023/01/15 11:36:21;;;;;;;0.60;0.60;;;;;;;7.55;100.00;95625.69;5044503;28;20344;-76
2023/01/15 11:38:50;;;;;;;0.87;0.80;;;;;;;7.56;100.00;95643.44;5047258;28;20229;-76
2023/01/15 11:41:24;;;;;;;0.60;0.60;;;;;;;7.55;100.00;95657.91;5042740;28;20197;-76
2023/01/15 11:52:13;;;;;;;0.70;0.70;;;;;;;7.14;100.00;95679.34;5047233;28;20289;-76
2023/01/15 11:54:44;;;;;;;0.60;0.60;;;;;;;7.10;100.00;95686.19;5046287;28;20210;-76
2023/01/15 11:57:26;;;;;;;1.00;0.50;;;;;;;7.04;100.00;95681.72;5041765;28;20207;-76
2023/01/15 11:59:53;;;;;;;1.33;0.57;;;;;;;6.98;100.00;95694.16;5053081;28;20214;-76
2023/01/15 12:02:30;;;;;;;0.70;0.70;;;;;;;6.94;100.00;95698.34;5041708;28;20206;-76
2023/01/15 12:05:01;;;;;;;0.90;0.70;;;;;;;6.82;100.00;95700.94;5042643;28;20209;-76
2023/01/15 12:07:30;;;;;;;0.50;0.50;;;;;;;6.84;100.00;95717.63;5041817;28;20198;-76
2023/01/15 12:10:13;;;;;;;1.40;0.97;;;;;;;6.83;100.00;95709.81;5040788;28;20245;-76
2023/01/15 12:12:58;;;;;;;0.50;0.50;;;;;;;6.79;100.00;95711.31;5042062;28;20216;-76
2023/01/15 12:15:41;;;;;;;0.90;0.90;;;;;;;6.70;100.00;95713.47;5041152;28;20214;-76
2023/01/15 12:18:46;;;;;;;0.70;0.57;;;;;;;6.66;100.00;95712.25;5039701;28;20280;-75
2023/01/15 12:21:35;;;;;;;1.33;0.57;;;;;;;6.64;100.00;95710.81;5039457;28;20202;-76
2023/01/15 12:24:33;;;;;;;0.60;0.60;;;;;;;6.61;100.00;95711.28;5039589;28;20325;-75
2023/01/15 12:27:20;;;;;;;0.50;0.50;;;;;;;6.59;100.00;95724.91;5040975;28;20210;-76
2023/01/15 12:29:54;;;;;;;0.57;0.57;;;;;;;6.51;100.00;95724.34;5048206;28;20225;-76
2023/01/15 12:32:25;;;;;;;0.60;0.60;;;;;;;6.51;100.00;95740.44;5038102;28;20218;-76
2023/01/15 12:34:58;;;;;;;0.50;0.50;;;;;;;6.39;100.00;95727.75;5040748;28;20213;-76